EIN393 EDDH-EIDW
Flight info
| Callsign | EIN393 |
|---|---|
| Flight time | 1h 32m |
| Altitude | 38000 |
| Route | WSN5G WSN N125 ITMIZ DCT MIMVA DCT OTBED L60 PENIL UL28 LELDO M145 BAGSO BAGSO3R |
| Aircraft | A32N/M-V/N |
Departure
| Time | 2026-04-21 10:33 |
|---|---|
| Airport | Hamburg Helmut Schmidt Airport (EDDH) |
Arrival
| Time | 2026-04-21 12:06 |
|---|---|
| Airport | Dublin Airport (EIDW) |
| Time | Latitude | Longitude | Altitude | Speed | Heading |
|---|---|---|---|---|---|
| 2026-04-21 10:19 | 53.63245 | 10.00357 | 48 ft | 0 kts | 86° |
| 2026-04-21 10:24 | 53.63245 | 10.00347 | 48 ft | 2 kts | 86° |
| 2026-04-21 10:24 | 53.63243 | 10.00319 | 48 ft | 2 kts | 86° |
| 2026-04-21 10:24 | 53.63242 | 10.00292 | 48 ft | 2 kts | 86° |
| 2026-04-21 10:25 | 53.63241 | 10.00267 | 47 ft | 2 kts | 84° |
| 2026-04-21 10:25 | 53.63245 | 10.00244 | 48 ft | 0 kts | 187° |
| 2026-04-21 10:28 | 53.63215 | 10.00246 | 48 ft | 6 kts | 177° |
| 2026-04-21 10:28 | 53.63148 | 10.00255 | 46 ft | 10 kts | 175° |
| 2026-04-21 10:29 | 53.63100 | 10.00261 | 48 ft | 10 kts | 177° |
| 2026-04-21 10:29 | 53.63031 | 10.00223 | 46 ft | 16 kts | 212° |
| 2026-04-21 10:29 | 53.62947 | 10.00133 | 48 ft | 12 kts | 212° |
| 2026-04-21 10:29 | 53.62895 | 10.00069 | 45 ft | 7 kts | 221° |
| 2026-04-21 10:30 | 53.62852 | 9.99984 | 44 ft | 11 kts | 239° |
| 2026-04-21 10:30 | 53.62824 | 9.99886 | 45 ft | 11 kts | 248° |
| 2026-04-21 10:30 | 53.62830 | 9.99787 | 43 ft | 8 kts | 307° |
| 2026-04-21 10:30 | 53.62855 | 9.99755 | 45 ft | 0 kts | 331° |
| 2026-04-21 10:33 | 53.63013 | 9.99618 | 45 ft | 70 kts | 333° |
| 2026-04-21 10:33 | 53.63738 | 9.98992 | 47 ft | 162 kts | 333° |
| 2026-04-21 10:33 | 53.64848 | 9.98000 | 846 ft | 190 kts | 334° |
| 2026-04-21 10:34 | 53.66031 | 9.96928 | 2082 ft | 197 kts | 334° |
| 2026-04-21 10:34 | 53.67252 | 9.95893 | 3408 ft | 197 kts | 333° |
| 2026-04-21 10:34 | 53.68472 | 9.94859 | 4593 ft | 201 kts | 334° |
| 2026-04-21 10:34 | 53.69764 | 9.93794 | 5578 ft | 212 kts | 334° |
| 2026-04-21 10:35 | 53.71040 | 9.92387 | 6426 ft | 231 kts | 307° |
| 2026-04-21 10:35 | 53.71567 | 9.89815 | 7478 ft | 243 kts | 265° |
| 2026-04-21 10:35 | 53.71196 | 9.86966 | 8550 ft | 256 kts | 252° |
| 2026-04-21 10:35 | 53.70601 | 9.84044 | 9572 ft | 270 kts | 250° |
| 2026-04-21 10:36 | 53.69924 | 9.80993 | 10594 ft | 283 kts | 249° |
| 2026-04-21 10:36 | 53.69217 | 9.77756 | 11440 ft | 303 kts | 250° |
| 2026-04-21 10:36 | 53.68493 | 9.74337 | 12199 ft | 323 kts | 250° |
| 2026-04-21 10:36 | 53.67734 | 9.70645 | 13002 ft | 341 kts | 251° |
| 2026-04-21 10:37 | 53.66952 | 9.66751 | 13814 ft | 357 kts | 251° |
| 2026-04-21 10:37 | 53.66074 | 9.62738 | 14640 ft | 372 kts | 246° |
| 2026-04-21 10:37 | 53.64879 | 9.58780 | 15440 ft | 385 kts | 241° |
| 2026-04-21 10:37 | 53.63499 | 9.54840 | 16359 ft | 393 kts | 238° |
| 2026-04-21 10:38 | 53.62037 | 9.50988 | 17314 ft | 398 kts | 237° |
| 2026-04-21 10:38 | 53.60482 | 9.47086 | 18241 ft | 404 kts | 236° |
| 2026-04-21 10:38 | 53.58868 | 9.43174 | 19135 ft | 409 kts | 235° |
| 2026-04-21 10:38 | 53.57205 | 9.39227 | 19978 ft | 415 kts | 234° |
| 2026-04-21 10:39 | 53.55510 | 9.35263 | 20785 ft | 420 kts | 234° |
| 2026-04-21 10:39 | 53.53782 | 9.31268 | 21562 ft | 425 kts | 234° |
| 2026-04-21 10:39 | 53.52026 | 9.27227 | 22303 ft | 430 kts | 234° |
| 2026-04-21 10:39 | 53.50244 | 9.23136 | 23032 ft | 435 kts | 234° |
| 2026-04-21 10:40 | 53.48447 | 9.19015 | 23722 ft | 440 kts | 234° |
| 2026-04-21 10:40 | 53.46631 | 9.14847 | 24396 ft | 444 kts | 234° |
| 2026-04-21 10:40 | 53.44815 | 9.10685 | 25035 ft | 449 kts | 234° |
| 2026-04-21 10:40 | 53.42962 | 9.06435 | 25671 ft | 453 kts | 234° |
| 2026-04-21 10:41 | 53.41091 | 9.02146 | 26276 ft | 457 kts | 234° |
| 2026-04-21 10:41 | 53.39208 | 8.97829 | 26908 ft | 459 kts | 234° |
| 2026-04-21 10:41 | 53.37326 | 8.93509 | 27709 ft | 457 kts | 234° |
| 2026-04-21 10:41 | 53.35644 | 8.88990 | 28480 ft | 455 kts | 242° |
| 2026-04-21 10:42 | 53.34263 | 8.84299 | 29223 ft | 454 kts | 245° |
| 2026-04-21 10:42 | 53.33002 | 8.79470 | 29938 ft | 452 kts | 247° |
| 2026-04-21 10:42 | 53.31825 | 8.74582 | 30630 ft | 451 kts | 249° |
| 2026-04-21 10:42 | 53.30696 | 8.69625 | 30810 ft | 463 kts | 249° |
| 2026-04-21 10:43 | 53.29567 | 8.64505 | 31108 ft | 470 kts | 250° |
| 2026-04-21 10:43 | 53.28467 | 8.59428 | 31746 ft | 468 kts | 250° |
| 2026-04-21 10:43 | 53.27375 | 8.54291 | 32349 ft | 468 kts | 251° |
| 2026-04-21 10:43 | 53.26333 | 8.49142 | 32945 ft | 467 kts | 251° |
| 2026-04-21 10:44 | 53.25321 | 8.43974 | 33517 ft | 467 kts | 252° |
| 2026-04-21 10:44 | 53.24329 | 8.38810 | 34091 ft | 466 kts | 252° |
| 2026-04-21 10:44 | 53.23346 | 8.33645 | 34629 ft | 466 kts | 252° |
| 2026-04-21 10:44 | 53.22371 | 8.28491 | 35114 ft | 466 kts | 252° |
| 2026-04-21 10:45 | 53.21405 | 8.23375 | 35565 ft | 467 kts | 252° |
| 2026-04-21 10:45 | 53.20427 | 8.18194 | 36024 ft | 467 kts | 252° |
| 2026-04-21 10:45 | 53.19447 | 8.13003 | 36456 ft | 468 kts | 252° |
| 2026-04-21 10:45 | 53.18467 | 8.07822 | 36891 ft | 468 kts | 252° |
| 2026-04-21 10:46 | 53.17489 | 8.02654 | 37444 ft | 465 kts | 252° |
| 2026-04-21 10:46 | 53.16520 | 7.97532 | 37920 ft | 461 kts | 252° |
| 2026-04-21 10:46 | 53.15556 | 7.92446 | 38173 ft | 460 kts | 252° |
| 2026-04-21 10:46 | 53.14599 | 7.87404 | 38275 ft | 464 kts | 252° |
| 2026-04-21 10:47 | 53.13619 | 7.82248 | 38323 ft | 468 kts | 252° |
| 2026-04-21 10:47 | 53.11655 | 7.71891 | 38347 ft | 466 kts | 255° |
| 2026-04-21 10:47 | 53.11163 | 7.66585 | 38365 ft | 464 kts | 266° |
| 2026-04-21 10:48 | 53.11044 | 7.61222 | 38361 ft | 464 kts | 269° |
| 2026-04-21 10:48 | 53.11033 | 7.50453 | 38362 ft | 465 kts | 270° |
| 2026-04-21 10:49 | 53.11119 | 7.39724 | 38362 ft | 465 kts | 271° |
| 2026-04-21 10:49 | 53.11235 | 7.28930 | 38364 ft | 471 kts | 271° |
| 2026-04-21 10:50 | 53.11363 | 7.17821 | 38366 ft | 488 kts | 271° |
| 2026-04-21 10:50 | 53.11489 | 7.06522 | 38364 ft | 486 kts | 271° |
| 2026-04-21 10:51 | 53.11607 | 6.95383 | 38363 ft | 481 kts | 271° |
| 2026-04-21 10:51 | 53.11718 | 6.84237 | 38365 ft | 482 kts | 271° |
| 2026-04-21 10:52 | 53.11823 | 6.73038 | 38371 ft | 483 kts | 271° |
| 2026-04-21 10:52 | 53.11918 | 6.61920 | 38374 ft | 482 kts | 271° |
| 2026-04-21 10:53 | 53.12008 | 6.50748 | 38375 ft | 482 kts | 270° |
| 2026-04-21 10:53 | 53.12082 | 6.39582 | 38375 ft | 483 kts | 270° |
| 2026-04-21 10:54 | 53.12149 | 6.28458 | 38376 ft | 483 kts | 270° |
| 2026-04-21 10:54 | 53.12205 | 6.17270 | 38375 ft | 482 kts | 270° |
| 2026-04-21 10:55 | 53.12252 | 6.06157 | 38375 ft | 482 kts | 270° |
| 2026-04-21 10:55 | 53.12285 | 5.94983 | 38375 ft | 483 kts | 270° |
| 2026-04-21 10:56 | 53.12312 | 5.83794 | 38375 ft | 482 kts | 270° |
| 2026-04-21 10:56 | 53.12327 | 5.72626 | 38376 ft | 482 kts | 270° |
| 2026-04-21 10:57 | 53.12333 | 5.61517 | 38375 ft | 483 kts | 270° |
| 2026-04-21 10:57 | 53.12328 | 5.50329 | 38375 ft | 482 kts | 270° |
| 2026-04-21 10:58 | 53.12312 | 5.39140 | 38376 ft | 482 kts | 270° |
| 2026-04-21 10:58 | 53.12288 | 5.28036 | 38378 ft | 482 kts | 270° |
| 2026-04-21 10:59 | 53.12250 | 5.16831 | 38376 ft | 483 kts | 270° |
| 2026-04-21 10:59 | 53.12204 | 5.05663 | 38375 ft | 482 kts | 269° |
| 2026-04-21 11:00 | 53.12145 | 4.94569 | 38375 ft | 482 kts | 269° |
| 2026-04-21 11:00 | 53.12075 | 4.83385 | 38376 ft | 483 kts | 269° |
| 2026-04-21 11:01 | 53.12000 | 4.72185 | 38376 ft | 482 kts | 269° |
| 2026-04-21 11:01 | 53.11912 | 4.61028 | 38376 ft | 482 kts | 269° |
| 2026-04-21 11:02 | 53.11762 | 4.44315 | 38376 ft | 483 kts | 269° |
| 2026-04-21 11:02 | 53.11646 | 4.33139 | 38376 ft | 482 kts | 269° |
| 2026-04-21 11:03 | 53.11520 | 4.21961 | 38375 ft | 481 kts | 269° |
| 2026-04-21 11:03 | 53.11387 | 4.10870 | 38383 ft | 482 kts | 269° |
| 2026-04-21 11:04 | 53.11240 | 3.99672 | 38384 ft | 483 kts | 269° |
| 2026-04-21 11:04 | 53.11084 | 3.88504 | 38389 ft | 481 kts | 268° |
| 2026-04-21 11:05 | 53.10916 | 3.77432 | 38393 ft | 482 kts | 268° |
| 2026-04-21 11:05 | 53.10738 | 3.66247 | 38393 ft | 483 kts | 268° |
| 2026-04-21 11:06 | 53.10547 | 3.55087 | 38393 ft | 482 kts | 268° |
| 2026-04-21 11:06 | 53.10348 | 3.43985 | 38394 ft | 481 kts | 268° |
| 2026-04-21 11:07 | 53.10272 | 3.32820 | 38398 ft | 482 kts | 273° |
| 2026-04-21 11:07 | 53.10834 | 3.21686 | 38409 ft | 483 kts | 276° |
| 2026-04-21 11:08 | 53.11550 | 3.10570 | 38403 ft | 481 kts | 276° |
| 2026-04-21 11:08 | 53.12291 | 2.99561 | 38411 ft | 482 kts | 276° |
| 2026-04-21 11:09 | 53.13040 | 2.88437 | 38397 ft | 483 kts | 276° |
| 2026-04-21 11:09 | 53.13782 | 2.77319 | 38394 ft | 482 kts | 276° |
| 2026-04-21 11:10 | 53.14508 | 2.66294 | 38395 ft | 481 kts | 276° |
| 2026-04-21 11:10 | 53.15232 | 2.55156 | 38394 ft | 483 kts | 276° |
| 2026-04-21 11:11 | 53.15943 | 2.44079 | 38395 ft | 482 kts | 276° |
| 2026-04-21 11:11 | 53.16646 | 2.32962 | 38394 ft | 481 kts | 276° |
| 2026-04-21 11:12 | 53.17334 | 2.21917 | 38398 ft | 482 kts | 276° |
| 2026-04-21 11:12 | 53.18017 | 2.10774 | 38401 ft | 482 kts | 276° |
| 2026-04-21 11:13 | 53.18690 | 1.99623 | 38399 ft | 482 kts | 276° |
| 2026-04-21 11:13 | 53.19348 | 1.88556 | 38404 ft | 481 kts | 275° |
| 2026-04-21 11:14 | 53.19997 | 1.77430 | 38399 ft | 482 kts | 275° |
| 2026-04-21 11:14 | 53.20638 | 1.66275 | 38399 ft | 482 kts | 275° |
| 2026-04-21 11:15 | 53.21265 | 1.55218 | 38405 ft | 481 kts | 275° |
| 2026-04-21 11:15 | 53.21887 | 1.44049 | 38399 ft | 482 kts | 275° |
| 2026-04-21 11:16 | 53.22494 | 1.32944 | 38401 ft | 482 kts | 275° |
| 2026-04-21 11:16 | 53.22991 | 1.23673 | 38407 ft | 482 kts | 275° |
| 2026-04-21 11:17 | 53.23582 | 1.12531 | 38400 ft | 481 kts | 275° |
| 2026-04-21 11:17 | 53.24256 | 0.99556 | 38400 ft | 482 kts | 275° |
| 2026-04-21 11:18 | 53.24732 | 0.90262 | 38400 ft | 482 kts | 275° |
| 2026-04-21 11:18 | 53.25291 | 0.79069 | 38414 ft | 481 kts | 275° |
| 2026-04-21 11:19 | 53.25840 | 0.67926 | 38400 ft | 481 kts | 275° |
| 2026-04-21 11:19 | 53.26378 | 0.56788 | 38404 ft | 483 kts | 275° |
| 2026-04-21 11:20 | 53.26904 | 0.45589 | 38405 ft | 482 kts | 274° |
| 2026-04-21 11:20 | 53.27417 | 0.34502 | 38402 ft | 481 kts | 274° |
| 2026-04-21 11:21 | 53.27925 | 0.23310 | 38410 ft | 482 kts | 274° |
| 2026-04-21 11:21 | 53.28422 | 0.12120 | 38400 ft | 482 kts | 274° |
| 2026-04-21 11:22 | 53.29140 | 0.01059 | 38410 ft | 481 kts | 278° |
| 2026-04-21 11:22 | 53.30180 | -0.09994 | 38399 ft | 481 kts | 279° |
| 2026-04-21 11:23 | 53.31295 | -0.20997 | 38420 ft | 479 kts | 279° |
| 2026-04-21 11:23 | 53.32429 | -0.32010 | 38402 ft | 481 kts | 279° |
| 2026-04-21 11:24 | 53.33556 | -0.43058 | 38418 ft | 481 kts | 279° |
| 2026-04-21 11:24 | 53.34670 | -0.54082 | 38402 ft | 480 kts | 279° |
| 2026-04-21 11:25 | 53.35763 | -0.65049 | 38405 ft | 480 kts | 279° |
| 2026-04-21 11:25 | 53.36857 | -0.76120 | 38407 ft | 481 kts | 279° |
| 2026-04-21 11:26 | 53.37932 | -0.87176 | 38395 ft | 480 kts | 279° |
| 2026-04-21 11:26 | 53.38987 | -0.98149 | 38381 ft | 480 kts | 279° |
| 2026-04-21 11:27 | 53.40047 | -1.09225 | 38358 ft | 481 kts | 279° |
| 2026-04-21 11:27 | 53.41099 | -1.20325 | 38331 ft | 481 kts | 279° |
| 2026-04-21 11:28 | 53.42128 | -1.31317 | 38311 ft | 480 kts | 279° |
| 2026-04-21 11:28 | 53.43157 | -1.42410 | 38297 ft | 481 kts | 278° |
| 2026-04-21 11:29 | 53.44176 | -1.53530 | 38297 ft | 481 kts | 278° |
| 2026-04-21 11:29 | 53.45179 | -1.64570 | 38309 ft | 480 kts | 278° |
| 2026-04-21 11:30 | 53.46179 | -1.75684 | 38329 ft | 481 kts | 278° |
| 2026-04-21 11:30 | 53.47161 | -1.86723 | 38353 ft | 481 kts | 278° |
| 2026-04-21 11:31 | 53.48139 | -1.97843 | 38369 ft | 481 kts | 278° |
| 2026-04-21 11:31 | 53.49101 | -2.08933 | 38384 ft | 481 kts | 278° |
| 2026-04-21 11:32 | 53.50057 | -2.20060 | 38394 ft | 480 kts | 278° |
| 2026-04-21 11:32 | 53.51005 | -2.31201 | 38398 ft | 482 kts | 278° |
| 2026-04-21 11:33 | 53.51937 | -2.42289 | 38399 ft | 481 kts | 278° |
| 2026-04-21 11:33 | 53.52861 | -2.53403 | 38416 ft | 480 kts | 278° |
| 2026-04-21 11:34 | 53.53775 | -2.64556 | 38407 ft | 480 kts | 278° |
| 2026-04-21 11:34 | 53.54675 | -2.75642 | 38409 ft | 481 kts | 278° |
| 2026-04-21 11:35 | 53.55567 | -2.86804 | 38408 ft | 481 kts | 277° |
| 2026-04-21 11:35 | 53.56443 | -2.97908 | 38401 ft | 480 kts | 277° |
| 2026-04-21 11:36 | 53.57313 | -3.09048 | 38411 ft | 480 kts | 277° |
| 2026-04-21 11:36 | 53.58171 | -3.20216 | 38398 ft | 481 kts | 277° |
| 2026-04-21 11:37 | 53.59016 | -3.31334 | 38398 ft | 481 kts | 277° |
| 2026-04-21 11:37 | 53.59855 | -3.42516 | 38406 ft | 480 kts | 277° |
| 2026-04-21 11:38 | 53.60683 | -3.53700 | 38409 ft | 481 kts | 277° |
| 2026-04-21 11:38 | 53.61759 | -3.64743 | 38426 ft | 481 kts | 285° |
| 2026-04-21 11:39 | 53.63873 | -3.75453 | 38408 ft | 481 kts | 290° |
| 2026-04-21 11:39 | 53.66289 | -3.86013 | 38407 ft | 480 kts | 291° |
| 2026-04-21 11:40 | 53.68779 | -3.96426 | 38412 ft | 481 kts | 292° |
| 2026-04-21 11:40 | 53.70995 | -4.07066 | 38429 ft | 482 kts | 281° |
| 2026-04-21 11:41 | 53.71921 | -4.18262 | 38429 ft | 481 kts | 276° |
| 2026-04-21 11:41 | 53.72480 | -4.29448 | 38423 ft | 480 kts | 274° |
| 2026-04-21 11:42 | 53.72900 | -4.40724 | 38431 ft | 481 kts | 273° |
| 2026-04-21 11:42 | 53.73291 | -4.52034 | 38381 ft | 482 kts | 273° |
| 2026-04-21 11:43 | 53.73484 | -4.57675 | 38111 ft | 481 kts | 273° |
| 2026-04-21 11:43 | 53.73671 | -4.63234 | 37429 ft | 479 kts | 273° |
| 2026-04-21 11:43 | 53.73858 | -4.68816 | 36798 ft | 469 kts | 273° |
| 2026-04-21 11:43 | 53.74040 | -4.74273 | 36085 ft | 461 kts | 273° |
| 2026-04-21 11:44 | 53.74218 | -4.79665 | 35130 ft | 459 kts | 273° |
| 2026-04-21 11:44 | 53.74392 | -4.85015 | 34486 ft | 449 kts | 273° |
| 2026-04-21 11:44 | 53.74558 | -4.90173 | 33727 ft | 443 kts | 273° |
| 2026-04-21 11:44 | 53.74726 | -4.95342 | 32882 ft | 439 kts | 273° |
| 2026-04-21 11:45 | 53.74890 | -5.00511 | 31954 ft | 437 kts | 273° |
| 2026-04-21 11:45 | 53.75049 | -5.05589 | 31387 ft | 426 kts | 273° |
| 2026-04-21 11:45 | 53.74996 | -5.10522 | 30816 ft | 416 kts | 262° |
| 2026-04-21 11:45 | 53.74478 | -5.15252 | 29949 ft | 414 kts | 257° |
| 2026-04-21 11:46 | 53.73776 | -5.19972 | 29081 ft | 412 kts | 255° |
| 2026-04-21 11:46 | 53.72996 | -5.24566 | 28560 ft | 401 kts | 253° |
| 2026-04-21 11:46 | 53.72183 | -5.29025 | 27906 ft | 394 kts | 252° |
| 2026-04-21 11:46 | 53.71342 | -5.33429 | 26985 ft | 395 kts | 252° |
| 2026-04-21 11:47 | 53.70469 | -5.37850 | 26049 ft | 396 kts | 251° |
| 2026-04-21 11:47 | 53.69584 | -5.42236 | 25312 ft | 391 kts | 251° |
| 2026-04-21 11:47 | 53.68756 | -5.46583 | 24574 ft | 386 kts | 253° |
| 2026-04-21 11:47 | 53.68043 | -5.50868 | 23849 ft | 381 kts | 255° |
| 2026-04-21 11:48 | 53.67385 | -5.55173 | 23169 ft | 376 kts | 256° |
| 2026-04-21 11:48 | 53.66775 | -5.59408 | 22540 ft | 369 kts | 257° |
| 2026-04-21 11:48 | 53.66215 | -5.63471 | 21985 ft | 362 kts | 257° |
| 2026-04-21 11:48 | 53.65671 | -5.67562 | 21416 ft | 354 kts | 257° |
| 2026-04-21 11:49 | 53.65142 | -5.71603 | 20761 ft | 351 kts | 257° |
| 2026-04-21 11:49 | 53.64616 | -5.75604 | 20118 ft | 347 kts | 257° |
| 2026-04-21 11:49 | 53.64095 | -5.79547 | 19474 ft | 343 kts | 257° |
| 2026-04-21 11:49 | 53.63578 | -5.83451 | 18837 ft | 339 kts | 257° |
| 2026-04-21 11:50 | 53.63066 | -5.87311 | 18203 ft | 335 kts | 257° |
| 2026-04-21 11:50 | 53.62565 | -5.91083 | 17573 ft | 332 kts | 257° |
| 2026-04-21 11:50 | 53.62061 | -5.94861 | 16938 ft | 329 kts | 257° |
| 2026-04-21 11:50 | 53.61560 | -5.98602 | 16308 ft | 326 kts | 257° |
| 2026-04-21 11:51 | 53.61063 | -6.02311 | 15685 ft | 323 kts | 257° |
| 2026-04-21 11:51 | 53.60571 | -6.05979 | 15051 ft | 319 kts | 257° |
| 2026-04-21 11:51 | 53.60081 | -6.09626 | 14408 ft | 317 kts | 257° |
| 2026-04-21 11:51 | 53.59599 | -6.13185 | 13793 ft | 314 kts | 257° |
| 2026-04-21 11:52 | 53.59112 | -6.16761 | 13182 ft | 311 kts | 257° |
| 2026-04-21 11:52 | 53.58620 | -6.20380 | 12754 ft | 319 kts | 257° |
| 2026-04-21 11:52 | 53.58131 | -6.23965 | 12563 ft | 309 kts | 257° |
| 2026-04-21 11:52 | 53.57649 | -6.27484 | 12478 ft | 309 kts | 257° |
| 2026-04-21 11:53 | 53.57187 | -6.31027 | 12435 ft | 309 kts | 263° |
| 2026-04-21 11:53 | 53.57383 | -6.34564 | 12405 ft | 309 kts | 285° |
| 2026-04-21 11:53 | 53.58025 | -6.37983 | 12356 ft | 298 kts | 289° |
| 2026-04-21 11:53 | 53.58705 | -6.41168 | 12229 ft | 281 kts | 293° |
| 2026-04-21 11:54 | 53.59533 | -6.44059 | 12071 ft | 267 kts | 297° |
| 2026-04-21 11:54 | 53.60364 | -6.46768 | 11927 ft | 252 kts | 297° |
| 2026-04-21 11:54 | 53.61111 | -6.49325 | 11647 ft | 239 kts | 295° |
| 2026-04-21 11:54 | 53.61783 | -6.51863 | 11124 ft | 240 kts | 292° |
| 2026-04-21 11:55 | 53.62382 | -6.54469 | 10633 ft | 238 kts | 289° |
| 2026-04-21 11:55 | 53.62884 | -6.57116 | 10165 ft | 236 kts | 285° |
| 2026-04-21 11:55 | 53.63265 | -6.59794 | 9655 ft | 235 kts | 280° |
| 2026-04-21 11:55 | 53.63381 | -6.62533 | 9151 ft | 234 kts | 267° |
| 2026-04-21 11:56 | 53.63147 | -6.65249 | 8674 ft | 232 kts | 256° |
| 2026-04-21 11:56 | 53.62649 | -6.67795 | 8217 ft | 230 kts | 247° |
| 2026-04-21 11:56 | 53.61933 | -6.70194 | 7754 ft | 228 kts | 240° |
| 2026-04-21 11:56 | 53.61086 | -6.72444 | 7300 ft | 226 kts | 234° |
| 2026-04-21 11:57 | 53.60087 | -6.74476 | 6850 ft | 224 kts | 226° |
| 2026-04-21 11:57 | 53.58949 | -6.76198 | 6405 ft | 222 kts | 216° |
| 2026-04-21 11:57 | 53.57632 | -6.77525 | 5952 ft | 220 kts | 206° |
| 2026-04-21 11:57 | 53.56208 | -6.78447 | 5511 ft | 218 kts | 194° |
| 2026-04-21 11:58 | 53.54716 | -6.78872 | 5055 ft | 217 kts | 184° |
| 2026-04-21 11:58 | 53.53212 | -6.78868 | 4618 ft | 215 kts | 173° |
| 2026-04-21 11:58 | 53.51749 | -6.78377 | 4175 ft | 214 kts | 163° |
| 2026-04-21 11:58 | 53.50368 | -6.77491 | 3734 ft | 213 kts | 153° |
| 2026-04-21 11:59 | 53.49129 | -6.76195 | 3471 ft | 203 kts | 143° |
| 2026-04-21 11:59 | 53.48089 | -6.74706 | 3295 ft | 191 kts | 133° |
| 2026-04-21 11:59 | 53.47277 | -6.73035 | 3139 ft | 179 kts | 124° |
| 2026-04-21 11:59 | 53.46657 | -6.71308 | 2939 ft | 168 kts | 117° |
| 2026-04-21 12:00 | 53.46202 | -6.69538 | 2752 ft | 165 kts | 105° |
| 2026-04-21 12:00 | 53.45948 | -6.67695 | 2601 ft | 162 kts | 98° |
| 2026-04-21 12:00 | 53.45782 | -6.65795 | 2549 ft | 170 kts | 95° |
| 2026-04-21 12:00 | 53.45660 | -6.63847 | 2516 ft | 168 kts | 94° |
| 2026-04-21 12:01 | 53.45559 | -6.61829 | 2509 ft | 178 kts | 93° |
| 2026-04-21 12:01 | 53.45462 | -6.59781 | 2502 ft | 175 kts | 93° |
| 2026-04-21 12:01 | 53.45362 | -6.57731 | 2498 ft | 176 kts | 93° |
| 2026-04-21 12:01 | 53.45257 | -6.55680 | 2493 ft | 177 kts | 94° |
| 2026-04-21 12:02 | 53.45145 | -6.53588 | 2451 ft | 181 kts | 94° |
| 2026-04-21 12:02 | 53.44916 | -6.49541 | 2203 ft | 169 kts | 94° |
| 2026-04-21 12:02 | 53.44804 | -6.47609 | 2077 ft | 166 kts | 94° |
| 2026-04-21 12:03 | 53.44696 | -6.45671 | 1956 ft | 167 kts | 93° |
| 2026-04-21 12:03 | 53.44589 | -6.43746 | 1833 ft | 164 kts | 93° |
| 2026-04-21 12:03 | 53.44480 | -6.41845 | 1697 ft | 161 kts | 93° |
| 2026-04-21 12:03 | 53.44373 | -6.39994 | 1573 ft | 159 kts | 92° |
| 2026-04-21 12:04 | 53.44272 | -6.38152 | 1447 ft | 158 kts | 92° |
| 2026-04-21 12:04 | 53.44208 | -6.36944 | 1363 ft | 157 kts | 92° |
| 2026-04-21 12:04 | 53.44074 | -6.34690 | 1050 ft | 141 kts | 93° |
| 2026-04-21 12:04 | 53.43994 | -6.33109 | 819 ft | 132 kts | 93° |
| 2026-04-21 12:05 | 53.43939 | -6.32073 | 671 ft | 131 kts | 94° |
| 2026-04-21 12:05 | 53.43855 | -6.30491 | 480 ft | 132 kts | 95° |
| 2026-04-21 12:05 | 53.43736 | -6.28396 | 247 ft | 140 kts | 95° |
| 2026-04-21 12:05 | 53.43659 | -6.27057 | 215 ft | 76 kts | 96° |
| 2026-04-21 12:06 | 53.43633 | -6.26579 | 211 ft | 56 kts | 94° |
| 2026-04-21 12:06 | 53.43605 | -6.26049 | 215 ft | 32 kts | 96° |
| 2026-04-21 12:06 | 53.43582 | -6.25628 | 209 ft | 58 kts | 95° |
| 2026-04-21 12:06 | 53.43512 | -6.25175 | 216 ft | 28 kts | 119° |
| 2026-04-21 12:07 | 53.43430 | -6.24944 | 211 ft | 18 kts | 117° |
| 2026-04-21 12:07 | 53.43378 | -6.24777 | 215 ft | 21 kts | 109° |
| 2026-04-21 12:07 | 53.43355 | -6.24525 | 211 ft | 18 kts | 94° |
| 2026-04-21 12:07 | 53.43285 | -6.24406 | 211 ft | 17 kts | 180° |
| 2026-04-21 12:08 | 53.43189 | -6.24485 | 216 ft | 8 kts | 257° |
| 2026-04-21 12:08 | 53.43192 | -6.24553 | 211 ft | 4 kts | 274° |
| 2026-04-21 12:08 | 53.43204 | -6.24668 | 211 ft | 9 kts | 293° |
| 2026-04-21 12:08 | 53.43226 | -6.24728 | 211 ft | 4 kts | 313° |
| 2026-04-21 12:09 | 53.43248 | -6.24737 | 215 ft | 5 kts | 3° |
| 2026-04-21 12:09 | 53.43267 | -6.24734 | 211 ft | 1 kts | 5° |
| 2026-04-21 12:09 | 53.43276 | -6.24733 | 211 ft | 0 kts | 5° |